sensor_id;sensor_type;location;lat;lon;timestamp;pressure;altitude;pressure_sealevel;temperature;humidity
62025;BME280;47978;49.118;12.146;2023-05-09T00:03:32;97914.00;;;10.60;88.09
62025;BME280;47978;49.118;12.146;2023-05-09T00:07:34;97911.50;;;10.58;87.87
62025;BME280;47978;49.118;12.146;2023-05-09T00:11:35;97910.91;;;10.61;87.50
62025;BME280;47978;49.118;12.146;2023-05-09T00:15:38;97897.41;;;10.60;87.51
62025;BME280;47978;49.118;12.146;2023-05-09T00:19:40;97909.56;;;10.58;87.93
62025;BME280;47978;49.118;12.146;2023-05-09T00:23:41;97897.47;;;10.54;88.04
62025;BME280;47978;49.118;12.146;2023-05-09T00:27:43;97898.06;;;10.51;88.18
62025;BME280;47978;49.118;12.146;2023-05-09T00:31:46;97896.94;;;10.52;87.80
62025;BME280;47978;49.118;12.146;2023-05-09T00:35:47;97891.66;;;10.56;87.47
62025;BME280;47978;49.118;12.146;2023-05-09T00:39:49;97888.56;;;10.57;86.93
62025;BME280;47978;49.118;12.146;2023-05-09T00:43:50;97883.91;;;10.53;87.46
62025;BME280;47978;49.118;12.146;2023-05-09T00:47:54;97875.94;;;10.51;87.46
62025;BME280;47978;49.118;12.146;2023-05-09T00:51:55;97874.38;;;10.45;88.09
62025;BME280;47978;49.118;12.146;2023-05-09T00:55:59;97868.06;;;10.40;87.99
62025;BME280;47978;49.118;12.146;2023-05-09T01:00:00;97875.53;;;10.39;88.66
62025;BME280;47978;49.118;12.146;2023-05-09T01:04:04;97868.94;;;10.35;88.48
62025;BME280;47978;49.118;12.146;2023-05-09T01:08:11;97870.13;;;10.29;89.05
62025;BME280;47978;49.118;12.146;2023-05-09T01:12:25;97880.06;;;10.30;88.65
62025;BME280;47978;49.118;12.146;2023-05-09T01:16:34;97872.97;;;10.19;89.39
62025;BME280;47978;49.118;12.146;2023-05-09T01:20:42;97868.94;;;10.11;90.12
62025;BME280;47978;49.118;12.146;2023-05-09T01:25:02;97868.22;;;10.00;90.86
62025;BME280;47978;49.118;12.146;2023-05-09T01:29:35;97868.22;;;10.00;90.61
62025;BME280;47978;49.118;12.146;2023-05-09T01:33:39;97864.09;;;9.98;90.55
62025;BME280;47978;49.118;12.146;2023-05-09T01:37:48;97860.56;;;9.92;90.87
62025;BME280;47978;49.118;12.146;2023-05-09T01:41:51;97852.09;;;9.83;91.28
62025;BME280;47978;49.118;12.146;2023-05-09T01:45:56;97851.81;;;9.85;91.00
62025;BME280;47978;49.118;12.146;2023-05-09T01:50:00;97848.47;;;9.88;90.07
62025;BME280;47978;49.118;12.146;2023-05-09T01:54:05;97850.22;;;9.79;90.68
62025;BME280;47978;49.118;12.146;2023-05-09T01:58:07;97846.13;;;9.76;90.26
62025;BME280;47978;49.118;12.146;2023-05-09T02:02:11;97840.25;;;9.83;89.36
62025;BME280;47978;49.118;12.146;2023-05-09T02:06:13;97835.75;;;9.87;89.01
62025;BME280;47978;49.118;12.146;2023-05-09T02:10:16;97832.19;;;9.86;87.91
62025;BME280;47978;49.118;12.146;2023-05-09T02:14:18;97837.47;;;10.07;88.10
62025;BME280;47978;49.118;12.146;2023-05-09T02:18:21;97837.28;;;9.98;88.98
62025;BME280;47978;49.118;12.146;2023-05-09T02:22:22;97839.66;;;9.86;88.91
62025;BME280;47978;49.118;12.146;2023-05-09T02:26:24;97835.66;;;9.97;89.37
62025;BME280;47978;49.118;12.146;2023-05-09T02:30:31;97841.34;;;10.06;88.76
62025;BME280;47978;49.118;12.146;2023-05-09T02:34:37;97846.34;;;9.80;89.16
62025;BME280;47978;49.118;12.146;2023-05-09T02:38:39;97834.97;;;9.57;90.71
62025;BME280;47978;49.118;12.146;2023-05-09T02:42:41;97837.94;;;9.37;91.32
62025;BME280;47978;49.118;12.146;2023-05-09T02:46:42;97833.63;;;9.26;91.70
62025;BME280;47978;49.118;12.146;2023-05-09T02:50:45;97835.84;;;9.23;91.50
62025;BME280;47978;49.118;12.146;2023-05-09T02:54:47;97832.88;;;9.15;91.88
62025;BME280;47978;49.118;12.146;2023-05-09T02:58:48;97827.38;;;9.10;92.53
62025;BME280;47978;49.118;12.146;2023-05-09T03:02:50;97823.28;;;9.07;92.24
62025;BME280;47978;49.118;12.146;2023-05-09T03:06:53;97821.03;;;9.14;91.89
62025;BME280;47978;49.118;12.146;2023-05-09T03:10:54;97816.69;;;9.03;91.85
62025;BME280;47978;49.118;12.146;2023-05-09T03:14:56;97821.59;;;9.11;91.36
62025;BME280;47978;49.118;12.146;2023-05-09T03:18:58;97811.41;;;9.07;91.63
62025;BME280;47978;49.118;12.146;2023-05-09T03:23:00;97807.97;;;8.91;92.63
62025;BME280;47978;49.118;12.146;2023-05-09T03:27:02;97799.19;;;8.84;92.89
62025;BME280;47978;49.118;12.146;2023-05-09T03:31:04;97798.47;;;9.02;92.34
62025;BME280;47978;49.118;12.146;2023-05-09T03:35:06;97795.94;;;9.11;90.58
62025;BME280;47978;49.118;12.146;2023-05-09T03:39:09;97798.47;;;9.02;91.35
62025;BME280;47978;49.118;12.146;2023-05-09T03:43:11;97802.16;;;8.92;91.93
62025;BME280;47978;49.118;12.146;2023-05-09T03:47:12;97803.56;;;8.90;91.99
62025;BME280;47978;49.118;12.146;2023-05-09T03:51:14;97796.78;;;8.77;92.79
62025;BME280;47978;49.118;12.146;2023-05-09T03:55:17;97795.50;;;8.59;94.27
62025;BME280;47978;49.118;12.146;2023-05-09T03:59:18;97801.56;;;8.56;94.48
62025;BME280;47978;49.118;12.146;2023-05-09T04:03:20;97795.78;;;8.58;94.24
62025;BME280;47978;49.118;12.146;2023-05-09T04:07:21;97799.91;;;8.60;94.43
62025;BME280;47978;49.118;12.146;2023-05-09T04:11:24;97802.34;;;8.67;94.13
62025;BME280;47978;49.118;12.146;2023-05-09T04:15:26;97801.19;;;8.73;94.03
62025;BME280;47978;49.118;12.146;2023-05-09T04:19:27;97806.66;;;8.83;93.28
62025;BME280;47978;49.118;12.146;2023-05-09T04:23:29;97797.19;;;8.94;93.46
62025;BME280;47978;49.118;12.146;2023-05-09T04:27:32;97801.66;;;9.19;91.28
62025;BME280;47978;49.118;12.146;2023-05-09T04:31:33;97804.06;;;8.97;92.82
62025;BME280;47978;49.118;12.146;2023-05-09T04:35:35;97805.66;;;9.03;92.91
62025;BME280;47978;49.118;12.146;2023-05-09T04:39:36;97800.69;;;9.05;92.43
62025;BME280;47978;49.118;12.146;2023-05-09T04:43:39;97794.38;;;9.34;91.17
62025;BME280;47978;49.118;12.146;2023-05-09T04:47:41;97804.34;;;10.26;87.55
62025;BME280;47978;49.118;12.146;2023-05-09T04:51:43;97800.22;;;10.85;84.37
62025;BME280;47978;49.118;12.146;2023-05-09T04:55:44;97794.41;;;11.19;83.15
62025;BME280;47978;49.118;12.146;2023-05-09T04:59:48;97784.66;;;11.55;81.44
62025;BME280;47978;49.118;12.146;2023-05-09T05:03:50;97793.66;;;12.07;79.86
62025;BME280;47978;49.118;12.146;2023-05-09T05:07:52;97791.56;;;12.40;78.65
62025;BME280;47978;49.118;12.146;2023-05-09T05:11:53;97779.31;;;12.55;76.15
62025;BME280;47978;49.118;12.146;2023-05-09T05:16:05;97770.44;;;12.89;74.13
62025;BME280;47978;49.118;12.146;2023-05-09T05:20:07;97769.75;;;12.61;67.61
62025;BME280;47978;49.118;12.146;2023-05-09T05:24:09;97773.34;;;12.62;67.59
62025;BME280;47978;49.118;12.146;2023-05-09T05:28:10;97775.84;;;13.08;63.01
62025;BME280;47978;49.118;12.146;2023-05-09T05:32:13;97778.66;;;14.59;57.35
62025;BME280;47978;49.118;12.146;2023-05-09T05:36:15;97777.56;;;15.94;55.52
62025;BME280;47978;49.118;12.146;2023-05-09T05:40:16;97771.94;;;17.58;49.26
62025;BME280;47978;49.118;12.146;2023-05-09T05:44:18;97774.06;;;17.73;47.02
62025;BME280;47978;49.118;12.146;2023-05-09T05:48:21;97777.75;;;19.25;45.52
62025;BME280;47978;49.118;12.146;2023-05-09T05:52:22;97766.63;;;17.77;48.35
62025;BME280;47978;49.118;12.146;2023-05-09T05:56:24;97772.75;;;17.25;48.51
62025;BME280;47978;49.118;12.146;2023-05-09T06:00:25;97777.22;;;17.72;46.69
62025;BME280;47978;49.118;12.146;2023-05-09T06:04:28;97763.25;;;19.95;44.09
62025;BME280;47978;49.118;12.146;2023-05-09T06:08:30;97758.69;;;21.44;41.09
62025;BME280;47978;49.118;12.146;2023-05-09T06:12:31;97754.88;;;20.46;40.56
62025;BME280;47978;49.118;12.146;2023-05-09T06:16:33;97753.22;;;20.77;40.68
62025;BME280;47978;49.118;12.146;2023-05-09T06:20:36;97749.41;;;21.86;39.25
62025;BME280;47978;49.118;12.146;2023-05-09T06:24:37;97745.88;;;22.35;37.44
62025;BME280;47978;49.118;12.146;2023-05-09T06:28:39;97752.59;;;19.28;40.47
62025;BME280;47978;49.118;12.146;2023-05-09T06:32:40;97739.31;;;20.64;39.02
62025;BME280;47978;49.118;12.146;2023-05-09T06:36:43;97744.03;;;21.77;40.16
62025;BME280;47978;49.118;12.146;2023-05-09T06:40:45;97743.06;;;21.89;37.10
62025;BME280;47978;49.118;12.146;2023-05-09T06:44:46;97741.03;;;20.69;39.40
62025;BME280;47978;49.118;12.146;2023-05-09T06:48:48;97736.72;;;19.04;42.12
62025;BME280;47978;49.118;12.146;2023-05-09T06:52:51;97729.69;;;17.39;45.88
62025;BME280;47978;49.118;12.146;2023-05-09T06:56:52;97720.41;;;20.81;40.86
62025;BME280;47978;49.118;12.146;2023-05-09T07:00:54;97723.59;;;24.18;33.95
62025;BME280;47978;49.118;12.146;2023-05-09T07:04:55;97718.97;;;20.71;39.46
62025;BME280;47978;49.118;12.146;2023-05-09T07:08:59;97721.16;;;22.01;36.74
62025;BME280;47978;49.118;12.146;2023-05-09T07:13:01;97713.22;;;21.22;38.26
62025;BME280;47978;49.118;12.146;2023-05-09T07:17:02;97705.34;;;21.31;39.14
62025;BME280;47978;49.118;12.146;2023-05-09T07:21:23;97704.19;;;20.74;37.42
62025;BME280;47978;49.118;12.146;2023-05-09T07:25:26;97699.88;;;21.58;37.59
62025;BME280;47978;49.118;12.146;2023-05-09T07:29:27;97691.53;;;21.65;35.76
62025;BME280;47978;49.118;12.146;2023-05-09T07:33:29;97690.63;;;19.93;39.08
62025;BME280;47978;49.118;12.146;2023-05-09T07:37:31;97685.09;;;20.64;39.05
62025;BME280;47978;49.118;12.146;2023-05-09T07:41:34;97680.00;;;22.43;34.77
62025;BME280;47978;49.118;12.146;2023-05-09T07:45:35;97674.63;;;22.34;35.67
62025;BME280;47978;49.118;12.146;2023-05-09T07:49:37;97664.25;;;21.04;36.60
62025;BME280;47978;49.118;12.146;2023-05-09T07:53:38;97663.66;;;20.56;38.68
62025;BME280;47978;49.118;12.146;2023-05-09T07:57:41;97660.34;;;21.74;35.36
62025;BME280;47978;49.118;12.146;2023-05-09T08:01:43;97659.91;;;21.72;34.69
62025;BME280;47978;49.118;12.146;2023-05-09T08:05:44;97659.94;;;20.71;37.02
62025;BME280;47978;49.118;12.146;2023-05-09T08:09:46;97654.13;;;19.46;39.12
62025;BME280;47978;49.118;12.146;2023-05-09T08:13:49;97653.75;;;20.46;37.86
62025;BME280;47978;49.118;12.146;2023-05-09T08:17:50;97650.34;;;20.37;35.56
62025;BME280;47978;49.118;12.146;2023-05-09T08:21:52;97645.78;;;23.42;33.30
62025;BME280;47978;49.118;12.146;2023-05-09T08:25:54;97635.34;;;23.87;31.15
62025;BME280;47978;49.118;12.146;2023-05-09T08:29:56;97638.25;;;22.52;33.45
62025;BME280;47978;49.118;12.146;2023-05-09T08:33:58;97627.63;;;20.26;35.42
62025;BME280;47978;49.118;12.146;2023-05-09T08:37:59;97629.16;;;20.04;36.96
62025;BME280;47978;49.118;12.146;2023-05-09T08:42:01;97617.03;;;23.29;32.28
62025;BME280;47978;49.118;12.146;2023-05-09T08:46:06;97613.28;;;21.28;36.65
62025;BME280;47978;49.118;12.146;2023-05-09T08:50:08;97599.69;;;22.60;32.39
62025;BME280;47978;49.118;12.146;2023-05-09T08:54:10;97597.78;;;21.84;34.48
62025;BME280;47978;49.118;12.146;2023-05-09T08:58:12;97596.38;;;20.28;34.35
62025;BME280;47978;49.118;12.146;2023-05-09T09:02:15;97593.97;;;20.65;35.60
62025;BME280;47978;49.118;12.146;2023-05-09T09:06:16;97592.41;;;21.29;33.97
62025;BME280;47978;49.118;12.146;2023-05-09T09:10:19;97592.53;;;20.36;36.93
62025;BME280;47978;49.118;12.146;2023-05-09T09:14:22;97584.63;;;19.23;38.17
62025;BME280;47978;49.118;12.146;2023-05-09T09:18:28;97578.09;;;19.98;35.33
62025;BME280;47978;49.118;12.146;2023-05-09T09:22:32;97570.09;;;19.65;36.18
62025;BME280;47978;49.118;12.146;2023-05-09T09:26:36;97567.19;;;19.14;38.80
62025;BME280;47978;49.118;12.146;2023-05-09T09:30:46;97560.03;;;19.17;40.14
62025;BME280;47978;49.118;12.146;2023-05-09T09:34:49;97553.19;;;19.30;42.08
62025;BME280;47978;49.118;12.146;2023-05-09T09:38:54;97553.13;;;18.82;41.07
62025;BME280;47978;49.118;12.146;2023-05-09T09:42:56;97540.94;;;19.06;39.29
62025;BME280;47978;49.118;12.146;2023-05-09T09:46:58;97541.41;;;19.40;39.62
62025;BME280;47978;49.118;12.146;2023-05-09T09:51:04;97530.28;;;18.96;40.79
62025;BME280;47978;49.118;12.146;2023-05-09T09:55:08;97525.41;;;19.25;39.11
62025;BME280;47978;49.118;12.146;2023-05-09T09:59:11;97520.88;;;19.36;39.66
62025;BME280;47978;49.118;12.146;2023-05-09T10:03:15;97507.19;;;19.35;38.30
62025;BME280;47978;49.118;12.146;2023-05-09T10:07:21;97496.66;;;18.52;38.28
62025;BME280;47978;49.118;12.146;2023-05-09T10:11:23;97503.72;;;19.57;36.56
62025;BME280;47978;49.118;12.146;2023-05-09T10:15:25;97486.28;;;19.64;37.89
62025;BME280;47978;49.118;12.146;2023-05-09T10:19:28;97484.81;;;19.54;35.38
62025;BME280;47978;49.118;12.146;2023-05-09T10:23:33;97471.69;;;19.23;35.76
62025;BME280;47978;49.118;12.146;2023-05-09T10:27:37;97457.72;;;19.26;36.47
62025;BME280;47978;49.118;12.146;2023-05-09T10:31:42;97469.22;;;19.37;34.78
62025;BME280;47978;49.118;12.146;2023-05-09T10:35:45;97458.16;;;19.44;35.47
62025;BME280;47978;49.118;12.146;2023-05-09T10:39:49;97447.91;;;19.52;34.45
62025;BME280;47978;49.118;12.146;2023-05-09T10:43:51;97443.56;;;19.70;36.14
62025;BME280;47978;49.118;12.146;2023-05-09T10:47:52;97437.66;;;19.75;34.68
62025;BME280;47978;49.118;12.146;2023-05-09T10:51:55;97428.19;;;19.48;36.79
62025;BME280;47978;49.118;12.146;2023-05-09T10:55:57;97422.66;;;19.52;35.28
62025;BME280;47978;49.118;12.146;2023-05-09T10:59:59;97404.91;;;19.28;37.74
62025;BME280;47978;49.118;12.146;2023-05-09T11:04:05;97398.31;;;19.56;38.58
62025;BME280;47978;49.118;12.146;2023-05-09T11:08:25;97399.03;;;19.88;37.70
62025;BME280;47978;49.118;12.146;2023-05-09T11:12:28;97383.94;;;19.96;39.32
62025;BME280;47978;49.118;12.146;2023-05-09T11:16:30;97382.78;;;20.20;39.05
62025;BME280;47978;49.118;12.146;2023-05-09T11:20:32;97381.44;;;20.34;37.69
62025;BME280;47978;49.118;12.146;2023-05-09T11:24:36;97370.66;;;19.93;38.74
62025;BME280;47978;49.118;12.146;2023-05-09T11:28:39;97365.31;;;20.08;38.41
62025;BME280;47978;49.118;12.146;2023-05-09T11:32:42;97361.56;;;19.81;37.17
62025;BME280;47978;49.118;12.146;2023-05-09T11:36:46;97358.59;;;20.12;39.73
62025;BME280;47978;49.118;12.146;2023-05-09T11:40:48;97346.28;;;19.97;37.87
62025;BME280;47978;49.118;12.146;2023-05-09T11:44:53;97339.38;;;20.14;36.15
62025;BME280;47978;49.118;12.146;2023-05-09T11:48:57;97324.59;;;20.40;36.91
62025;BME280;47978;49.118;12.146;2023-05-09T11:52:59;97323.97;;;20.05;35.37
62025;BME280;47978;49.118;12.146;2023-05-09T11:57:00;97311.78;;;20.20;35.24
62025;BME280;47978;49.118;12.146;2023-05-09T12:01:03;97309.44;;;19.99;34.97
62025;BME280;47978;49.118;12.146;2023-05-09T12:05:06;97298.00;;;20.11;35.27
62025;BME280;47978;49.118;12.146;2023-05-09T12:09:08;97289.25;;;20.39;36.55
62025;BME280;47978;49.118;12.146;2023-05-09T12:13:09;97282.97;;;20.23;36.52
62025;BME280;47978;49.118;12.146;2023-05-09T12:17:12;97272.53;;;20.00;35.38
62025;BME280;47978;49.118;12.146;2023-05-09T12:21:13;97260.84;;;20.18;36.79
62025;BME280;47978;49.118;12.146;2023-05-09T12:25:15;97264.16;;;20.24;36.05
62025;BME280;47978;49.118;12.146;2023-05-09T12:29:17;97258.06;;;20.44;35.66
62025;BME280;47978;49.118;12.146;2023-05-09T12:33:21;97242.50;;;20.51;34.49
62025;BME280;47978;49.118;12.146;2023-05-09T12:37:23;97240.66;;;20.35;34.17
62025;BME280;47978;49.118;12.146;2023-05-09T12:41:24;97228.94;;;21.13;35.74
62025;BME280;47978;49.118;12.146;2023-05-09T12:45:30;97237.53;;;21.24;33.35
62025;BME280;47978;49.118;12.146;2023-05-09T12:49:35;97223.91;;;20.42;33.18
62025;BME280;47978;49.118;12.146;2023-05-09T12:53:38;97211.50;;;21.00;32.86
62025;BME280;47978;49.118;12.146;2023-05-09T12:57:40;97214.75;;;21.02;33.68
62025;BME280;47978;49.118;12.146;2023-05-09T13:01:48;97197.31;;;20.89;33.09
62025;BME280;47978;49.118;12.146;2023-05-09T13:05:56;97189.84;;;21.01;32.40
62025;BME280;47978;49.118;12.146;2023-05-09T13:09:58;97191.63;;;21.16;33.06
62025;BME280;47978;49.118;12.146;2023-05-09T13:14:01;97193.47;;;21.35;34.56
62025;BME280;47978;49.118;12.146;2023-05-09T13:18:03;97180.38;;;21.16;31.68
62025;BME280;47978;49.118;12.146;2023-05-09T13:22:06;97178.72;;;20.78;33.36
62025;BME280;47978;49.118;12.146;2023-05-09T13:26:07;97162.53;;;21.01;32.33
62025;BME280;47978;49.118;12.146;2023-05-09T13:30:10;97155.75;;;21.06;33.30
62025;BME280;47978;49.118;12.146;2023-05-09T13:34:11;97144.06;;;20.70;33.12
62025;BME280;47978;49.118;12.146;2023-05-09T13:38:14;97148.19;;;21.10;35.32
62025;BME280;47978;49.118;12.146;2023-05-09T13:42:15;97138.34;;;21.30;34.40
62025;BME280;47978;49.118;12.146;2023-05-09T13:46:19;97139.13;;;21.65;34.45
62025;BME280;47978;49.118;12.146;2023-05-09T13:50:21;97130.56;;;21.54;33.67
62025;BME280;47978;49.118;12.146;2023-05-09T13:54:24;97125.59;;;21.37;33.52
62025;BME280;47978;49.118;12.146;2023-05-09T13:58:26;97119.63;;;21.42;35.04
62025;BME280;47978;49.118;12.146;2023-05-09T14:02:27;97114.91;;;21.53;35.87
62025;BME280;47978;49.118;12.146;2023-05-09T14:06:29;97115.22;;;21.89;35.50
62025;BME280;47978;49.118;12.146;2023-05-09T14:10:32;97108.16;;;21.65;36.77
62025;BME280;47978;49.118;12.146;2023-05-09T14:14:33;97106.50;;;21.19;35.59
62025;BME280;47978;49.118;12.146;2023-05-09T14:18:35;97098.91;;;21.23;36.87
62025;BME280;47978;49.118;12.146;2023-05-09T14:22:37;97093.19;;;21.13;37.28
62025;BME280;47978;49.118;12.146;2023-05-09T14:26:40;97095.69;;;21.21;36.91
62025;BME280;47978;49.118;12.146;2023-05-09T14:30:41;97087.28;;;21.28;38.35
62025;BME280;47978;49.118;12.146;2023-05-09T14:34:43;97081.75;;;21.36;37.29
62025;BME280;47978;49.118;12.146;2023-05-09T14:38:45;97080.84;;;21.24;39.91
62025;BME280;47978;49.118;12.146;2023-05-09T14:42:48;97073.94;;;21.18;39.99
62025;BME280;47978;49.118;12.146;2023-05-09T14:46:49;97066.50;;;20.99;40.11
62025;BME280;47978;49.118;12.146;2023-05-09T14:50:51;97058.97;;;21.48;40.19
62025;BME280;47978;49.118;12.146;2023-05-09T14:54:52;97058.44;;;21.35;39.57
62025;BME280;47978;49.118;12.146;2023-05-09T14:58:55;97049.72;;;21.47;39.14
62025;BME280;47978;49.118;12.146;2023-05-09T15:02:57;97042.88;;;21.04;40.13
62025;BME280;47978;49.118;12.146;2023-05-09T15:06:59;97036.50;;;21.10;39.29
62025;BME280;47978;49.118;12.146;2023-05-09T15:11:00;97031.72;;;21.55;40.02
62025;BME280;47978;49.118;12.146;2023-05-09T15:15:16;97037.69;;;21.47;39.93
62025;BME280;47978;49.118;12.146;2023-05-09T15:19:18;97028.13;;;21.62;39.79
62025;BME280;47978;49.118;12.146;2023-05-09T15:23:19;97026.13;;;21.63;40.46
62025;BME280;47978;49.118;12.146;2023-05-09T15:27:21;97015.81;;;21.81;39.20
62025;BME280;47978;49.118;12.146;2023-05-09T15:31:24;97012.28;;;21.40;40.90
62025;BME280;47978;49.118;12.146;2023-05-09T15:35:25;97010.91;;;20.78;40.20
62025;BME280;47978;49.118;12.146;2023-05-09T15:39:32;96990.03;;;20.45;41.13
62025;BME280;47978;49.118;12.146;2023-05-09T15:43:34;96983.09;;;20.70;40.81
62025;BME280;47978;49.118;12.146;2023-05-09T15:47:37;96988.56;;;20.93;40.53
62025;BME280;47978;49.118;12.146;2023-05-09T15:51:38;96970.19;;;21.06;40.64
62025;BME280;47978;49.118;12.146;2023-05-09T15:55:40;96972.75;;;21.25;40.95
62025;BME280;47978;49.118;12.146;2023-05-09T15:59:42;96968.31;;;20.76;40.96
62025;BME280;47978;49.118;12.146;2023-05-09T16:03:44;96967.25;;;20.92;41.78
62025;BME280;47978;49.118;12.146;2023-05-09T16:07:46;96956.91;;;21.03;41.85
62025;BME280;47978;49.118;12.146;2023-05-09T16:11:48;96947.75;;;21.09;40.93
62025;BME280;47978;49.118;12.146;2023-05-09T16:15:49;96937.16;;;20.92;41.49
62025;BME280;47978;49.118;12.146;2023-05-09T16:19:53;96934.94;;;20.71;40.89
62025;BME280;47978;49.118;12.146;2023-05-09T16:23:55;96922.28;;;20.92;41.25
62025;BME280;47978;49.118;12.146;2023-05-09T16:27:56;96920.03;;;20.63;40.60
62025;BME280;47978;49.118;12.146;2023-05-09T16:31:58;96917.97;;;20.60;40.27
62025;BME280;47978;49.118;12.146;2023-05-09T16:36:01;96911.50;;;20.53;41.07
62025;BME280;47978;49.118;12.146;2023-05-09T16:40:03;96910.13;;;20.80;40.26
62025;BME280;47978;49.118;12.146;2023-05-09T16:44:05;96902.97;;;20.86;41.46
62025;BME280;47978;49.118;12.146;2023-05-09T16:48:06;96906.28;;;20.99;40.86
62025;BME280;47978;49.118;12.146;2023-05-09T16:52:09;96903.22;;;20.33;41.32
62025;BME280;47978;49.118;12.146;2023-05-09T16:56:11;96908.69;;;20.19;41.86
62025;BME280;47978;49.118;12.146;2023-05-09T17:00:13;96895.28;;;20.42;42.57
62025;BME280;47978;49.118;12.146;2023-05-09T17:04:15;96890.34;;;19.95;42.15
62025;BME280;47978;49.118;12.146;2023-05-09T17:08:18;96882.44;;;20.38;42.66
62025;BME280;47978;49.118;12.146;2023-05-09T17:12:20;96889.78;;;20.12;43.04
62025;BME280;47978;49.118;12.146;2023-05-09T17:16:21;96883.75;;;20.14;44.10
62025;BME280;47978;49.118;12.146;2023-05-09T17:20:23;96887.25;;;19.70;44.08
62025;BME280;47978;49.118;12.146;2023-05-09T17:24:26;96885.81;;;19.83;46.83
62025;BME280;47978;49.118;12.146;2023-05-09T17:28:27;96883.41;;;19.25;47.95
62025;BME280;47978;49.118;12.146;2023-05-09T17:32:29;96869.81;;;19.27;45.50
62025;BME280;47978;49.118;12.146;2023-05-09T17:36:30;96874.13;;;18.94;52.44
62025;BME280;47978;49.118;12.146;2023-05-09T17:40:33;96878.78;;;18.86;53.14
62025;BME280;47978;49.118;12.146;2023-05-09T17:44:34;96878.31;;;18.15;51.69
62025;BME280;47978;49.118;12.146;2023-05-09T17:48:36;96871.94;;;18.15;54.51
62025;BME280;47978;49.118;12.146;2023-05-09T17:52:38;96870.88;;;17.81;55.97
62025;BME280;47978;49.118;12.146;2023-05-09T17:56:40;96870.09;;;17.64;54.35
62025;BME280;47978;49.118;12.146;2023-05-09T18:00:42;96861.88;;;17.71;55.96
62025;BME280;47978;49.118;12.146;2023-05-09T18:04:43;96862.06;;;17.24;57.01
62025;BME280;47978;49.118;12.146;2023-05-09T18:08:45;96851.25;;;16.71;58.39
62025;BME280;47978;49.118;12.146;2023-05-09T18:12:48;96853.59;;;16.37;59.94
62025;BME280;47978;49.118;12.146;2023-05-09T18:16:49;96848.09;;;16.57;61.18
62025;BME280;47978;49.118;12.146;2023-05-09T18:20:51;96854.81;;;15.92;63.51
62025;BME280;47978;49.118;12.146;2023-05-09T18:24:52;96855.31;;;15.54;65.53
62025;BME280;47978;49.118;12.146;2023-05-09T18:28:56;96846.13;;;15.25;65.90
62025;BME280;47978;49.118;12.146;2023-05-09T18:32:58;96852.78;;;15.09;65.96
62025;BME280;47978;49.118;12.146;2023-05-09T18:36:59;96852.56;;;14.77;67.77
62025;BME280;47978;49.118;12.146;2023-05-09T18:41:01;96839.34;;;14.49;68.46
62025;BME280;47978;49.118;12.146;2023-05-09T18:45:05;96836.56;;;14.25;69.09
62025;BME280;47978;49.118;12.146;2023-05-09T18:49:06;96848.59;;;14.16;69.09
62025;BME280;47978;49.118;12.146;2023-05-09T18:53:08;96838.63;;;14.03;68.91
62025;BME280;47978;49.118;12.146;2023-05-09T18:57:09;96842.16;;;13.91;68.55
62025;BME280;47978;49.118;12.146;2023-05-09T19:01:12;96842.50;;;13.78;67.92
62025;BME280;47978;49.118;12.146;2023-05-09T19:05:14;96829.50;;;13.69;68.26
62025;BME280;47978;49.118;12.146;2023-05-09T19:09:15;96830.13;;;13.54;68.83
62025;BME280;47978;49.118;12.146;2023-05-09T19:13:17;96827.78;;;13.44;68.46
62025;BME280;47978;49.118;12.146;2023-05-09T19:17:20;96826.22;;;13.34;68.60
62025;BME280;47978;49.118;12.146;2023-05-09T19:21:22;96825.53;;;13.58;69.76
62025;BME280;47978;49.118;12.146;2023-05-09T19:25:23;96835.25;;;13.31;69.89
62025;BME280;47978;49.118;12.146;2023-05-09T19:29:25;96826.44;;;13.08;70.91
62025;BME280;47978;49.118;12.146;2023-05-09T19:33:28;96832.97;;;12.62;72.96
62025;BME280;47978;49.118;12.146;2023-05-09T19:37:30;96835.94;;;12.56;72.78
62025;BME280;47978;49.118;12.146;2023-05-09T19:41:31;96841.53;;;12.48;72.67
62025;BME280;47978;49.118;12.146;2023-05-09T19:45:33;96833.13;;;12.35;73.74
62025;BME280;47978;49.118;12.146;2023-05-09T19:49:36;96828.28;;;12.15;73.19
62025;BME280;47978;49.118;12.146;2023-05-09T19:53:38;96841.91;;;11.99;75.07
62025;BME280;47978;49.118;12.146;2023-05-09T19:57:40;96842.41;;;11.84;75.76
62025;BME280;47978;49.118;12.146;2023-05-09T20:01:42;96828.41;;;11.80;75.41
62025;BME280;47978;49.118;12.146;2023-05-09T20:05:45;96833.31;;;11.66;76.04
62025;BME280;47978;49.118;12.146;2023-05-09T20:09:46;96829.63;;;11.53;76.82
62025;BME280;47978;49.118;12.146;2023-05-09T20:13:48;96823.91;;;11.41;76.68
62025;BME280;47978;49.118;12.146;2023-05-09T20:17:50;96831.28;;;11.28;77.17
62025;BME280;47978;49.118;12.146;2023-05-09T20:21:52;96827.38;;;11.20;77.30
62025;BME280;47978;49.118;12.146;2023-05-09T20:30:05;96829.66;;;10.92;78.86
62025;BME280;47978;49.118;12.146;2023-05-09T20:34:08;96835.69;;;10.94;78.15
62025;BME280;47978;49.118;12.146;2023-05-09T20:38:11;96841.34;;;10.89;77.99
62025;BME280;47978;49.118;12.146;2023-05-09T20:42:12;96845.44;;;10.83;78.14
62025;BME280;47978;49.118;12.146;2023-05-09T20:46:14;96837.41;;;10.64;79.06
62025;BME280;47978;49.118;12.146;2023-05-09T20:50:16;96825.56;;;10.64;79.67
62025;BME280;47978;49.118;12.146;2023-05-09T20:54:19;96819.50;;;10.53;79.73
62025;BME280;47978;49.118;12.146;2023-05-09T20:58:21;96819.56;;;10.62;79.33
62025;BME280;47978;49.118;12.146;2023-05-09T21:02:22;96810.28;;;10.75;78.87
62025;BME280;47978;49.118;12.146;2023-05-09T21:06:24;96818.72;;;10.70;79.40
62025;BME280;47978;49.118;12.146;2023-05-09T21:10:27;96817.78;;;10.83;78.33
62025;BME280;47978;49.118;12.146;2023-05-09T21:14:29;96809.47;;;10.74;79.33
62025;BME280;47978;49.118;12.146;2023-05-09T21:18:30;96810.41;;;10.61;79.40